createdAt,value
2017-04-27T00:00:10.752Z,7.13
2017-04-27T00:02:39.101Z,7.68
2017-04-27T00:05:07.420Z,7.53
2017-04-27T00:07:35.917Z,7.35
2017-04-27T00:18:44.348Z,7.98
2017-04-27T00:21:12.664Z,7.72
2017-04-27T00:23:40.981Z,7.03
2017-04-27T00:26:09.351Z,8.07
2017-04-27T00:28:37.680Z,9.18
2017-04-27T00:31:06.013Z,8.22
2017-04-27T00:33:35.117Z,7.58
2017-04-27T00:36:03.437Z,7.58
2017-04-27T00:38:31.764Z,8.45
2017-04-27T00:41:00.977Z,7.93
2017-04-27T00:43:30.040Z,8.25
2017-04-27T00:45:58.363Z,7.38
2017-04-27T00:48:27.008Z,7.78
2017-04-27T00:50:55.335Z,7.98
2017-04-27T00:53:23.672Z,8.42
2017-04-27T00:55:52.803Z,7.57
2017-04-27T00:58:21.112Z,7.17
2017-04-27T01:00:49.437Z,6.72
2017-04-27T01:03:18.014Z,6.30
2017-04-27T01:05:47.084Z,6.60
2017-04-27T01:08:15.404Z,5.57
2017-04-27T01:10:43.776Z,5.97
2017-04-27T01:13:12.093Z,5.60
2017-04-27T01:15:40.405Z,5.80
2017-04-27T01:18:09.644Z,5.53
2017-04-27T01:20:38.047Z,6.25
2017-04-27T01:23:06.369Z,5.58
2017-04-27T01:25:34.711Z,5.97
2017-04-27T01:28:03.020Z,5.83
2017-04-27T01:30:32.089Z,5.40
2017-04-27T01:33:00.448Z,5.95
2017-04-27T01:35:28.769Z,5.58
2017-04-27T01:37:57.862Z,5.17
2017-04-27T01:40:27.915Z,4.88
2017-04-27T01:42:56.231Z,5.47
2017-04-27T01:45:24.551Z,4.33
2017-04-27T01:47:53.221Z,4.65
2017-04-27T01:50:21.543Z,4.12
2017-04-27T01:52:49.882Z,3.87
2017-04-27T01:55:18.452Z,5.50
2017-04-27T01:57:46.787Z,4.25
2017-04-27T02:00:15.118Z,4.72
2017-04-27T02:02:44.204Z,4.05
2017-04-27T02:05:13.275Z,4.98
2017-04-27T02:07:41.597Z,4.63
2017-04-27T02:10:10.152Z,4.80
2017-04-27T02:12:38.490Z,4.07
2017-04-27T02:15:06.807Z,4.03
2017-04-27T02:17:35.927Z,4.58
2017-04-27T02:20:04.273Z,4.17
2017-04-27T02:22:32.719Z,3.95
2017-04-27T02:25:01.072Z,4.63
2017-04-27T02:27:29.397Z,5.03
2017-04-27T02:29:57.710Z,4.60
2017-04-27T02:32:26.282Z,5.02
2017-04-27T02:34:55.342Z,4.88
2017-04-27T02:37:23.663Z,4.83
2017-04-27T02:39:52.044Z,5.28
2017-04-27T02:42:20.377Z,5.73
2017-04-27T02:44:48.711Z,5.02
2017-04-27T02:47:17.069Z,5.27
2017-04-27T02:49:46.141Z,5.13
2017-04-27T02:52:14.473Z,4.60
2017-04-27T02:54:42.831Z,5.98
2017-04-27T02:57:11.157Z,5.27
2017-04-27T02:59:39.485Z,6.18
2017-04-27T03:02:08.154Z,6.43
2017-04-27T03:04:37.228Z,6.40
2017-04-27T03:07:05.543Z,6.48
2017-04-27T03:09:33.914Z,5.08
2017-04-27T03:12:02.229Z,6.18
2017-04-27T03:14:30.564Z,6.43
2017-04-27T03:16:58.962Z,5.78
2017-04-27T03:19:27.286Z,5.75
2017-04-27T03:21:55.599Z,6.18
2017-04-27T03:24:23.987Z,7.35
2017-04-27T03:26:52.318Z,5.63
2017-04-27T03:29:20.644Z,6.17
2017-04-27T03:31:49.096Z,6.03
2017-04-27T03:34:18.152Z,6.05
2017-04-27T03:36:49.813Z,7.15
2017-04-27T03:39:18.166Z,7.07
2017-04-27T03:41:46.487Z,6.68
2017-04-27T03:44:14.851Z,6.45
2017-04-27T03:46:46.925Z,6.55
2017-04-27T03:49:15.487Z,6.88
2017-04-27T03:51:43.820Z,7.22
2017-04-27T03:54:12.140Z,7.10
2017-04-27T03:56:40.873Z,7.40
2017-04-27T03:59:09.186Z,6.02
2017-04-27T04:01:37.496Z,7.22
2017-04-27T04:04:06.113Z,6.50
2017-04-27T04:06:34.428Z,6.78
2017-04-27T04:09:02.748Z,7.35
2017-04-27T04:11:31.114Z,6.93
2017-04-27T04:13:59.424Z,6.97
2017-04-27T04:16:27.744Z,9.00
2017-04-27T04:18:56.218Z,8.12
2017-04-27T04:21:24.534Z,6.92
2017-04-27T04:23:52.858Z,6.77
2017-04-27T04:26:21.212Z,7.03
2017-04-27T04:28:49.531Z,6.13
2017-04-27T04:31:17.849Z,6.58
2017-04-27T04:33:46.220Z,7.25
2017-04-27T04:36:14.539Z,8.53
2017-04-27T04:38:42.852Z,8.70
2017-04-27T04:41:11.316Z,9.03
2017-04-27T04:43:40.544Z,9.80
2017-04-27T04:46:08.966Z,9.90
2017-04-27T04:48:37.319Z,10.25
2017-04-27T04:51:06.387Z,9.32
2017-04-27T04:53:34.699Z,8.82
2017-04-27T04:56:04.094Z,10.05
2017-04-27T04:58:32.429Z,10.08
2017-04-27T05:01:00.765Z,10.23
2017-04-27T05:03:29.298Z,10.80
2017-04-27T05:05:58.432Z,11.10
2017-04-27T05:08:26.780Z,11.62
2017-04-27T05:10:55.604Z,12.28
2017-04-27T05:13:23.933Z,13.80
2017-04-27T05:15:52.282Z,12.93
2017-04-27T05:18:20.950Z,13.45
2017-04-27T05:20:49.273Z,13.87
2017-04-27T05:23:17.610Z,12.55
2017-04-27T05:25:46.376Z,10.58
2017-04-27T05:28:14.698Z,10.92
2017-04-27T05:30:43.039Z,9.88
2017-04-27T05:33:12.164Z,10.05
2017-04-27T05:35:40.512Z,8.42
2017-04-27T05:38:09.568Z,9.38
2017-04-27T05:40:38.064Z,9.42
2017-04-27T05:43:06.388Z,8.43
2017-04-27T05:45:34.786Z,8.97
2017-04-27T05:48:03.333Z,8.17
2017-04-27T05:50:31.676Z,8.35
2017-04-27T05:53:00.005Z,8.90
2017-04-27T05:55:28.495Z,8.98
2017-04-27T05:57:56.813Z,9.08
2017-04-27T06:00:25.132Z,8.03
2017-04-27T06:02:53.627Z,8.28
2017-04-27T06:05:21.954Z,7.57
2017-04-27T06:07:51.018Z,7.82
2017-04-27T06:10:19.496Z,8.15
2017-04-27T06:12:47.817Z,7.40
2017-04-27T06:15:17.159Z,6.47
2017-04-27T06:17:45.817Z,6.73
2017-04-27T06:20:14.161Z,6.97
2017-04-27T06:22:42.491Z,5.45
2017-04-27T06:25:10.948Z,5.00
2017-04-27T06:27:39.478Z,5.53
2017-04-27T06:30:07.792Z,4.98
2017-04-27T06:32:36.419Z,5.30
2017-04-27T06:35:04.756Z,5.47
2017-04-27T06:37:33.813Z,4.45
2017-04-27T06:40:02.201Z,5.15
2017-04-27T06:42:30.519Z,6.18
2017-04-27T06:44:58.846Z,4.95
2017-04-27T06:47:27.573Z,4.92
2017-04-27T06:49:55.893Z,5.32
2017-04-27T06:52:24.207Z,4.98
2017-04-27T06:54:52.805Z,3.90
2017-04-27T06:57:21.869Z,3.62
2017-04-27T06:59:50.205Z,4.17
2017-04-27T07:02:18.660Z,3.93
2017-04-27T07:04:46.974Z,3.82
2017-04-27T07:07:15.296Z,3.77
2017-04-27T07:09:43.860Z,4.68
2017-04-27T07:12:12.191Z,3.93
2017-04-27T07:14:40.536Z,4.30
2017-04-27T07:17:09.880Z,4.15
2017-04-27T07:19:38.194Z,3.55
2017-04-27T07:22:06.538Z,3.17
2017-04-27T07:24:35.189Z,3.83
2017-04-27T07:27:03.505Z,3.53
2017-04-27T07:29:31.837Z,3.10
2017-04-27T07:32:01.149Z,3.35
2017-04-27T07:34:30.212Z,4.00
2017-04-27T07:36:58.536Z,2.97
2017-04-27T07:39:26.899Z,3.68
2017-04-27T07:41:55.223Z,2.68
2017-04-27T07:44:23.544Z,3.02
2017-04-27T07:46:52.661Z,3.90
2017-04-27T07:49:20.994Z,3.23
2017-04-27T07:51:49.313Z,3.62
2017-04-27T07:54:18.989Z,3.27
2017-04-27T07:56:47.356Z,3.10
2017-04-27T07:59:15.685Z,3.27
2017-04-27T08:01:44.042Z,1.97
2017-04-27T08:04:12.369Z,1.95
2017-04-27T08:06:40.687Z,2.27
2017-04-27T08:09:10.296Z,2.38
2017-04-27T08:11:39.365Z,2.20
2017-04-27T08:14:07.693Z,2.50
2017-04-27T08:16:36.258Z,2.43
2017-04-27T08:19:05.320Z,2.22
2017-04-27T08:21:33.652Z,1.75
2017-04-27T08:24:02.105Z,1.95
2017-04-27T08:26:31.211Z,3.13
2017-04-27T08:28:59.529Z,2.35
2017-04-27T08:31:27.889Z,2.52
2017-04-27T08:33:56.201Z,2.08
2017-04-27T08:36:24.526Z,2.10
2017-04-27T08:38:52.973Z,2.27
2017-04-27T08:41:22.036Z,2.18
2017-04-27T08:43:51.158Z,2.08
2017-04-27T08:46:19.741Z,1.80
2017-04-27T08:48:48.055Z,2.27
2017-04-27T08:51:16.377Z,2.17
2017-04-27T08:53:44.846Z,2.03
2017-04-27T08:56:13.159Z,1.97
2017-04-27T08:58:42.235Z,2.30
2017-04-27T09:01:10.641Z,2.17
2017-04-27T09:03:39.777Z,2.50
2017-04-27T09:06:08.100Z,2.13
2017-04-27T09:08:36.566Z,1.63
2017-04-27T09:11:04.872Z,2.30
2017-04-27T09:13:33.939Z,1.83
2017-04-27T09:16:02.555Z,1.93
2017-04-27T09:18:31.132Z,1.60
2017-04-27T09:21:00.197Z,1.70
2017-04-27T09:23:28.572Z,1.85
2017-04-27T09:25:56.909Z,1.95
2017-04-27T09:28:25.241Z,1.75
2017-04-27T09:30:53.731Z,1.57
2017-04-27T09:33:22.052Z,1.58
2017-04-27T09:35:50.382Z,1.75
2017-04-27T09:38:19.515Z,1.97
2017-04-27T09:40:47.862Z,1.20
2017-04-27T09:43:16.959Z,1.70
2017-04-27T09:45:45.686Z,1.80
2017-04-27T09:48:14.024Z,1.47
2017-04-27T09:50:42.371Z,1.08
2017-04-27T09:53:10.892Z,1.60
2017-04-27T09:55:39.960Z,1.53
2017-04-27T09:58:09.084Z,1.60
2017-04-27T10:00:38.361Z,1.25
2017-04-27T10:03:06.701Z,2.08
2017-04-27T10:05:35.028Z,2.10
2017-04-27T10:08:06.290Z,2.67
2017-04-27T10:10:34.632Z,2.33
2017-04-27T10:13:02.959Z,2.45
2017-04-27T10:15:31.449Z,2.40
2017-04-27T10:17:59.775Z,1.77
2017-04-27T10:20:28.851Z,2.08
2017-04-27T10:22:57.342Z,2.22
2017-04-27T10:25:25.670Z,2.60
2017-04-27T10:27:54.105Z,2.73
2017-04-27T10:30:22.613Z,2.58
2017-04-27T10:32:50.939Z,2.38
2017-04-27T10:35:19.265Z,2.30
2017-04-27T10:37:47.650Z,2.75
2017-04-27T10:40:16.005Z,2.43
2017-04-27T10:42:45.081Z,2.32
2017-04-27T10:45:13.742Z,2.13
2017-04-27T10:47:42.060Z,3.32
2017-04-27T10:50:11.129Z,2.52
2017-04-27T10:52:39.525Z,2.63
2017-04-27T10:55:08.586Z,2.58
2017-04-27T10:57:36.908Z,2.33
2017-04-27T11:00:06.025Z,2.22
2017-04-27T11:02:34.352Z,2.87
2017-04-27T11:05:02.680Z,2.73
2017-04-27T11:07:31.049Z,1.72
2017-04-27T11:09:59.431Z,2.12
2017-04-27T11:12:27.784Z,1.85
2017-04-27T11:14:57.285Z,2.18
2017-04-27T11:17:25.620Z,2.37
2017-04-27T11:19:53.957Z,2.40
2017-04-27T11:22:23.174Z,2.32
2017-04-27T11:24:51.503Z,2.56
2017-04-27T11:27:19.818Z,3.57
2017-04-27T11:29:48.292Z,2.05
2017-04-27T11:32:16.638Z,2.32
2017-04-27T11:34:44.968Z,2.82
2017-04-27T11:37:13.632Z,2.10
2017-04-27T11:39:41.963Z,2.15
2017-04-27T11:42:10.296Z,2.07
2017-04-27T11:44:39.072Z,2.70
2017-04-27T11:47:07.431Z,3.00
2017-04-27T11:49:35.768Z,2.20
2017-04-27T11:52:04.539Z,1.95
2017-04-27T11:54:32.876Z,2.38
2017-04-27T11:57:01.207Z,2.40
2017-04-27T11:59:29.711Z,2.08
2017-04-27T12:01:58.041Z,2.45
2017-04-27T12:04:26.364Z,2.13
2017-04-27T12:06:54.752Z,2.17
2017-04-27T12:09:23.083Z,2.02
2017-04-27T12:11:51.423Z,1.62
2017-04-27T12:14:20.131Z,2.47
2017-04-27T12:16:48.502Z,2.95
2017-04-27T12:19:17.575Z,3.03
2017-04-27T12:21:45.971Z,2.40
2017-04-27T12:24:15.038Z,2.62
2017-04-27T12:26:43.370Z,2.33
2017-04-27T12:29:11.914Z,1.93
2017-04-27T12:31:40.245Z,2.57
2017-04-27T12:34:08.576Z,2.32
2017-04-27T12:36:37.706Z,3.25
2017-04-27T12:39:06.367Z,2.63
2017-04-27T12:41:35.433Z,2.82
2017-04-27T12:44:03.841Z,2.38
2017-04-27T12:46:32.916Z,2.07
2017-04-27T12:49:01.249Z,2.72
2017-04-27T12:51:29.804Z,3.18
2017-04-27T12:53:58.137Z,1.90
2017-04-27T12:56:26.464Z,2.58
2017-04-27T12:58:54.953Z,2.97
2017-04-27T13:01:23.298Z,3.48
2017-04-27T13:03:51.639Z,3.03
2017-04-27T13:06:20.019Z,2.30
2017-04-27T13:08:48.386Z,2.28
2017-04-27T13:11:16.735Z,2.78
2017-04-27T13:13:45.219Z,2.22
2017-04-27T13:16:13.544Z,2.28
2017-04-27T13:18:41.895Z,2.05
2017-04-27T13:21:10.281Z,2.98
2017-04-27T13:23:38.620Z,1.52
2017-04-27T13:26:06.981Z,1.95
2017-04-27T13:28:36.343Z,2.22
2017-04-27T13:31:04.668Z,1.88
2017-04-27T13:33:32.995Z,1.47
2017-04-27T13:36:01.386Z,2.00
2017-04-27T13:38:29.994Z,2.15
2017-04-27T13:41:00.279Z,2.53
2017-04-27T13:43:28.603Z,1.95
2017-04-27T13:45:57.876Z,2.12
2017-04-27T13:48:26.217Z,2.05
2017-04-27T13:50:54.553Z,2.00
2017-04-27T13:53:23.792Z,2.92
2017-04-27T13:55:52.110Z,2.72
2017-04-27T13:58:20.503Z,2.85
2017-04-27T14:00:48.910Z,2.97
2017-04-27T14:03:17.245Z,3.15
2017-04-27T14:05:45.576Z,2.77
2017-04-27T14:08:14.137Z,3.02
2017-04-27T14:10:42.463Z,2.85
2017-04-27T14:13:10.831Z,2.70
2017-04-27T14:15:39.360Z,3.27
2017-04-27T14:18:08.420Z,2.57
2017-04-27T14:20:36.753Z,2.68
2017-04-27T14:23:05.139Z,2.37
2017-04-27T14:25:33.456Z,2.95
2017-04-27T14:28:01.793Z,2.25
2017-04-27T14:30:30.155Z,2.98
2017-04-27T14:32:58.492Z,1.95
2017-04-27T14:35:26.834Z,2.32
2017-04-27T14:37:55.224Z,1.77
2017-04-27T14:40:23.547Z,1.48
2017-04-27T14:42:52.628Z,2.15
2017-04-27T14:45:21.128Z,1.57
2017-04-27T14:47:50.192Z,1.38
2017-04-27T14:50:18.555Z,2.20
2017-04-27T14:52:46.942Z,1.65
2017-04-27T14:55:15.268Z,2.10
2017-04-27T14:57:43.675Z,1.90
2017-04-27T15:00:12.333Z,1.50
2017-04-27T15:02:40.652Z,1.60
2017-04-27T15:05:08.968Z,2.30
2017-04-27T15:07:38.277Z,2.25
2017-04-27T15:10:07.343Z,1.97
2017-04-27T15:12:35.681Z,1.28
2017-04-27T15:15:04.251Z,1.22
2017-04-27T15:17:32.594Z,1.92
2017-04-27T15:20:00.932Z,1.50
2017-04-27T15:22:29.285Z,1.80
2017-04-27T15:24:57.612Z,1.73
2017-04-27T15:27:25.941Z,1.57
2017-04-27T15:29:54.507Z,1.33
2017-04-27T15:32:23.569Z,1.72
2017-04-27T15:34:51.905Z,1.57
2017-04-27T15:37:20.721Z,1.53
2017-04-27T15:39:49.105Z,2.20
2017-04-27T15:42:17.438Z,1.75
2017-04-27T15:44:45.837Z,1.83
2017-04-27T15:47:14.189Z,1.40
2017-04-27T15:49:42.509Z,2.02
2017-04-27T15:52:11.035Z,2.07
2017-04-27T15:54:40.096Z,1.88
2017-04-27T15:57:08.466Z,1.80
2017-04-27T15:59:37.099Z,2.05
2017-04-27T16:02:05.446Z,1.32
2017-04-27T16:04:33.816Z,1.63
2017-04-27T16:07:02.364Z,2.00
2017-04-27T16:09:30.716Z,1.92
2017-04-27T16:11:59.109Z,1.63
2017-04-27T16:14:27.889Z,1.68
2017-04-27T16:16:56.245Z,1.95
2017-04-27T16:19:24.581Z,1.82
2017-04-27T16:21:53.103Z,1.97
2017-04-27T16:24:22.176Z,1.82
2017-04-27T16:26:51.238Z,2.28
2017-04-27T16:29:19.830Z,1.68
2017-04-27T16:31:48.176Z,1.95
2017-04-27T16:34:16.504Z,1.75
2017-04-27T16:36:45.324Z,2.10
2017-04-27T16:39:13.666Z,1.83
2017-04-27T16:41:42.009Z,1.55
2017-04-27T16:44:10.545Z,1.73
2017-04-27T16:46:38.949Z,1.82
2017-04-27T16:49:07.295Z,2.05
2017-04-27T16:51:35.660Z,1.75
2017-04-27T16:54:04.017Z,2.07
2017-04-27T16:56:32.672Z,1.98
2017-04-27T16:59:01.236Z,1.48
2017-04-27T17:01:30.324Z,1.60
2017-04-27T17:03:59.421Z,2.17
2017-04-27T17:06:28.630Z,2.03
2017-04-27T17:08:57.760Z,1.70
2017-04-27T17:11:26.110Z,2.22
2017-04-27T17:13:54.788Z,2.00
2017-04-27T17:16:23.936Z,2.33
2017-04-27T17:18:52.344Z,2.15
2017-04-27T17:21:21.260Z,2.03
2017-04-27T17:23:49.891Z,2.65
2017-04-27T17:26:18.296Z,2.02
2017-04-27T17:28:50.681Z,1.98
2017-04-27T17:31:19.796Z,2.03
2017-04-27T17:33:48.183Z,1.62
2017-04-27T17:36:17.044Z,2.02
2017-04-27T17:38:45.943Z,2.70
2017-04-27T17:41:14.660Z,1.80
2017-04-27T17:43:46.017Z,1.95
2017-04-27T17:46:14.852Z,1.83
2017-04-27T17:48:43.681Z,1.82
2017-04-27T17:51:13.135Z,1.97
2017-04-27T17:53:44.289Z,2.27
2017-04-27T17:56:12.699Z,1.68
2017-04-27T17:58:41.356Z,1.87
2017-04-27T18:01:09.738Z,1.70
2017-04-27T18:03:38.225Z,2.98
2017-04-27T18:06:06.655Z,2.32
2017-04-27T18:08:35.632Z,2.47
2017-04-27T18:11:04.132Z,2.00
2017-04-27T18:13:32.654Z,2.02
2017-04-27T18:16:01.766Z,1.80
2017-04-27T18:18:30.580Z,2.10
2017-04-27T18:20:58.897Z,2.78
2017-04-27T18:23:27.236Z,3.00
2017-04-27T18:25:55.657Z,2.57
2017-04-27T18:28:24.120Z,2.78
2017-04-27T18:30:52.469Z,2.15
2017-04-27T18:33:22.058Z,2.28
2017-04-27T18:35:51.132Z,2.65
2017-04-27T18:38:19.716Z,2.82
2017-04-27T18:40:48.917Z,3.12
2017-04-27T18:43:17.984Z,2.98
2017-04-27T18:45:46.397Z,2.37
2017-04-27T18:48:15.924Z,2.77
2017-04-27T18:50:44.502Z,2.68
2017-04-27T18:53:13.496Z,2.90
2017-04-27T18:55:42.047Z,3.22
2017-04-27T18:58:10.410Z,3.30
2017-04-27T19:00:38.769Z,3.45
2017-04-27T19:03:09.259Z,3.02
2017-04-27T19:05:38.347Z,3.33
2017-04-27T19:08:07.085Z,3.47
2017-04-27T19:10:35.547Z,2.68
2017-04-27T19:13:04.081Z,3.32
2017-04-27T19:15:32.518Z,2.50
2017-04-27T19:18:00.940Z,2.97
2017-04-27T19:20:29.268Z,2.75
2017-04-27T19:22:57.648Z,3.12
2017-04-27T19:25:28.094Z,3.18
2017-04-27T19:27:57.321Z,3.42
2017-04-27T19:30:25.669Z,2.50
2017-04-27T19:32:55.203Z,2.62
2017-04-27T19:35:23.553Z,3.93
2017-04-27T19:37:51.910Z,2.95
2017-04-27T19:40:21.119Z,3.35
2017-04-27T19:42:50.230Z,4.12
2017-04-27T19:45:18.557Z,3.93
2017-04-27T19:47:47.685Z,3.12
2017-04-27T19:50:16.020Z,3.28
2017-04-27T19:52:44.350Z,3.42
2017-04-27T19:55:13.441Z,3.15
2017-04-27T19:57:42.646Z,3.73
2017-04-27T20:00:10.997Z,3.00
2017-04-27T20:02:39.733Z,2.73
2017-04-27T20:05:09.817Z,3.18
2017-04-27T20:07:38.330Z,2.97
2017-04-27T20:10:09.381Z,3.83
2017-04-27T20:12:37.716Z,3.47
2017-04-27T20:15:06.027Z,2.82
2017-04-27T20:17:35.960Z,3.00
2017-04-27T20:20:05.625Z,3.18
2017-04-27T20:22:34.072Z,3.75
2017-04-27T20:25:02.549Z,4.05
2017-04-27T20:27:30.889Z,3.67
2017-04-27T20:29:59.949Z,2.52
2017-04-27T20:32:28.688Z,2.70
2017-04-27T20:34:57.246Z,2.82
2017-04-27T20:37:26.295Z,3.38
2017-04-27T20:39:54.786Z,3.32
2017-04-27T20:42:23.107Z,2.73
2017-04-27T20:44:52.989Z,2.85
2017-04-27T20:47:21.348Z,2.65
2017-04-27T20:49:49.790Z,3.10
2017-04-27T20:52:18.427Z,3.03
2017-04-27T20:54:47.140Z,2.80
2017-04-27T20:57:16.203Z,2.68
2017-04-27T20:59:45.450Z,3.37
2017-04-27T21:02:14.047Z,2.53
2017-04-27T21:04:42.373Z,2.63
2017-04-27T21:07:11.905Z,2.53
2017-04-27T21:09:40.491Z,2.50
2017-04-27T21:12:09.552Z,2.82
2017-04-27T21:14:38.133Z,2.85
2017-04-27T21:17:06.796Z,2.95
2017-04-27T21:19:35.256Z,3.40
2017-04-27T21:22:03.599Z,3.53
2017-04-27T21:24:32.724Z,3.50
2017-04-27T21:27:01.262Z,2.73
2017-04-27T21:29:30.453Z,3.42
2017-04-27T21:31:58.840Z,2.65
2017-04-27T21:34:27.164Z,3.20
2017-04-27T21:36:56.821Z,2.88
2017-04-27T21:39:25.472Z,2.82
2017-04-27T21:41:53.785Z,3.15
2017-04-27T21:44:22.123Z,2.95
2017-04-27T21:46:50.838Z,2.50
2017-04-27T21:49:19.354Z,3.05
2017-04-27T21:51:48.520Z,3.08
2017-04-27T21:54:17.229Z,3.12
2017-04-27T21:56:46.887Z,2.48
2017-04-27T21:59:15.282Z,2.62
2017-04-27T22:01:43.821Z,2.82
2017-04-27T22:04:12.161Z,2.60
2017-04-27T22:06:40.731Z,2.95
2017-04-27T22:09:09.228Z,2.52
2017-04-27T22:11:38.322Z,2.93
2017-04-27T22:14:07.285Z,2.55
2017-04-27T22:16:35.989Z,2.25
2017-04-27T22:19:04.330Z,3.13
2017-04-27T22:21:32.659Z,5.12
2017-04-27T22:24:01.853Z,2.62
2017-04-27T22:26:30.182Z,2.50
2017-04-27T22:28:58.505Z,3.07
2017-04-27T22:31:26.956Z,3.07
2017-04-27T22:33:55.272Z,2.78
2017-04-27T22:36:23.592Z,2.82
2017-04-27T22:38:52.244Z,3.15
2017-04-27T22:41:21.301Z,2.65
2017-04-27T22:43:49.640Z,2.60
2017-04-27T22:46:18.201Z,3.17
2017-04-27T22:48:47.255Z,3.27
2017-04-27T22:51:15.573Z,2.88
2017-04-27T22:53:45.073Z,3.30
2017-04-27T22:56:14.135Z,3.52
2017-04-27T22:58:42.452Z,3.48
2017-04-27T23:01:10.830Z,3.40
2017-04-27T23:03:39.145Z,3.23
2017-04-27T23:06:07.480Z,2.70
2017-04-27T23:08:42.884Z,3.47
2017-04-27T23:11:11.209Z,3.40
2017-04-27T23:13:39.543Z,3.25
2017-04-27T23:16:08.204Z,3.92
2017-04-27T23:18:36.521Z,3.53
2017-04-27T23:21:04.890Z,3.47
2017-04-27T23:23:33.312Z,3.97
2017-04-27T23:26:01.632Z,3.73
2017-04-27T23:28:29.943Z,4.10
2017-04-27T23:30:59.341Z,3.63
2017-04-27T23:33:28.397Z,4.57
2017-04-27T23:35:56.707Z,4.48
2017-04-27T23:38:25.444Z,3.57
2017-04-27T23:40:53.768Z,3.65
2017-04-27T23:43:22.111Z,3.98
2017-04-27T23:45:50.656Z,3.58
2017-04-27T23:48:18.987Z,4.60
2017-04-27T23:50:47.309Z,4.50
2017-04-27T23:53:15.860Z,4.00
2017-04-27T23:55:44.171Z,5.20
2017-04-27T23:58:12.497Z,4.85
